sensor_id;sensor_type;location;lat;lon;timestamp;pressure;altitude;pressure_sealevel;temperature;humidity
60019;BME280;45870;42.528;26.740;2022-08-11T00:01:54;99609.38;;;24.61;42.49
60019;BME280;45870;42.528;26.740;2022-08-11T00:04:23;99602.72;;;25.38;40.60
60019;BME280;45870;42.528;26.740;2022-08-11T00:06:49;99600.59;;;25.14;41.17
60019;BME280;45870;42.528;26.740;2022-08-11T00:09:19;99605.19;;;25.02;41.62
60019;BME280;45870;42.528;26.740;2022-08-11T00:11:50;99612.53;;;24.98;41.42
60019;BME280;45870;42.528;26.740;2022-08-11T00:14:19;99614.44;;;25.06;41.39
60019;BME280;45870;42.528;26.740;2022-08-11T00:16:55;99592.63;;;25.42;40.26
60019;BME280;45870;42.528;26.740;2022-08-11T00:19:24;99601.41;;;25.15;41.17
60019;BME280;45870;42.528;26.740;2022-08-11T00:21:52;99607.72;;;25.53;40.37
60019;BME280;45870;42.528;26.740;2022-08-11T00:24:19;99604.50;;;26.13;39.21
60019;BME280;45870;42.528;26.740;2022-08-11T00:26:51;99603.88;;;25.66;39.74
60019;BME280;45870;42.528;26.740;2022-08-11T00:29:18;99605.38;;;25.64;39.80
60019;BME280;45870;42.528;26.740;2022-08-11T00:31:51;99604.16;;;24.77;41.90
60019;BME280;45870;42.528;26.740;2022-08-11T00:34:21;99614.81;;;24.96;41.48
60019;BME280;45870;42.528;26.740;2022-08-11T00:36:51;99620.19;;;24.92;41.64
60019;BME280;45870;42.528;26.740;2022-08-11T00:39:20;99616.81;;;24.69;42.05
60019;BME280;45870;42.528;26.740;2022-08-11T00:47:26;99596.13;;;24.38;42.73
60019;BME280;45870;42.528;26.740;2022-08-11T00:50:25;99630.38;;;24.19;43.44
60019;BME280;45870;42.528;26.740;2022-08-11T00:58:58;99624.34;;;24.52;42.49
60019;BME280;45870;42.528;26.740;2022-08-11T01:29:29;99603.25;;;24.38;42.38
60019;BME280;45870;42.528;26.740;2022-08-11T01:32:21;99597.81;;;24.76;41.45
60019;BME280;45870;42.528;26.740;2022-08-11T01:46:32;99561.41;;;24.11;42.06
60019;BME280;45870;42.528;26.740;2022-08-11T01:49:09;99586.28;;;24.83;40.69
60019;BME280;45870;42.528;26.740;2022-08-11T01:57:33;99587.81;;;26.22;37.87
60019;BME280;45870;42.528;26.740;2022-08-11T02:00:19;99598.38;;;23.67;43.18
60019;BME280;45870;42.528;26.740;2022-08-11T02:03:32;99593.25;;;24.72;40.88
60019;BME280;45870;42.528;26.740;2022-08-11T02:06:34;99595.78;;;23.96;42.30
60019;BME280;45870;42.528;26.740;2022-08-11T02:09:42;99597.06;;;25.05;39.67
60019;BME280;45870;42.528;26.740;2022-08-11T02:26:02;99307.84;;;22.87;40.92
60019;BME280;45870;42.528;26.740;2022-08-11T02:37:25;99616.00;;;25.53;38.25
60019;BME280;45870;42.528;26.740;2022-08-11T02:42:39;99621.06;;;24.58;40.20
60019;BME280;45870;42.528;26.740;2022-08-11T02:53:53;99616.56;;;26.09;37.28
60019;BME280;45870;42.528;26.740;2022-08-11T02:56:39;99619.41;;;25.21;38.53
60019;BME280;45870;42.528;26.740;2022-08-11T03:13:02;99602.03;;;25.20;38.77
60019;BME280;45870;42.528;26.740;2022-08-11T03:22:06;99610.25;;;24.27;40.34
60019;BME280;45870;42.528;26.740;2022-08-11T03:24:49;99608.63;;;24.09;41.19
60019;BME280;45870;42.528;26.740;2022-08-11T03:30:38;99608.66;;;22.87;43.27
60019;BME280;45870;42.528;26.740;2022-08-11T03:42:15;99612.63;;;24.55;39.71
60019;BME280;45870;42.528;26.740;2022-08-11T03:58:23;99593.34;;;25.30;38.43
60019;BME280;45870;42.528;26.740;2022-08-11T04:07:15;99608.53;;;26.37;36.53
60019;BME280;45870;42.528;26.740;2022-08-11T04:12:52;99596.69;;;28.18;32.67
60019;BME280;45870;42.528;26.740;2022-08-11T04:24:48;99611.25;;;27.63;34.55
60019;BME280;45870;42.528;26.740;2022-08-11T04:48:57;99611.56;;;26.44;36.12
60019;BME280;45870;42.528;26.740;2022-08-11T05:13:36;99601.66;;;27.24;34.44
60019;BME280;45870;42.528;26.740;2022-08-11T05:16:28;99639.00;;;24.99;40.30
60019;BME280;45870;42.528;26.740;2022-08-11T05:19:20;99644.44;;;24.61;41.49
60019;BME280;45870;42.528;26.740;2022-08-11T05:22:07;99636.81;;;26.21;38.65
60019;BME280;45870;42.528;26.740;2022-08-11T05:28:12;99623.97;;;27.40;35.20
60019;BME280;45870;42.528;26.740;2022-08-11T05:31:10;99631.38;;;28.95;33.06
60019;BME280;45870;42.528;26.740;2022-08-11T05:34:04;99622.06;;;28.60;34.02
60019;BME280;45870;42.528;26.740;2022-08-11T05:39:45;99621.06;;;27.12;36.20
60019;BME280;45870;42.528;26.740;2022-08-11T05:42:31;99628.97;;;26.77;37.18
60019;BME280;45870;42.528;26.740;2022-08-11T05:45:17;99629.22;;;27.93;35.20
60019;BME280;45870;42.528;26.740;2022-08-11T05:48:03;99626.75;;;29.03;32.97
60019;BME280;45870;42.528;26.740;2022-08-11T05:50:54;99623.59;;;30.02;31.61
60019;BME280;45870;42.528;26.740;2022-08-11T05:53:51;99641.88;;;27.66;35.67
60019;BME280;45870;42.528;26.740;2022-08-11T05:56:43;99615.78;;;30.46;30.39
60019;BME280;45870;42.528;26.740;2022-08-11T05:59:17;99625.72;;;30.66;30.65
60019;BME280;45870;42.528;26.740;2022-08-11T06:01:44;99621.41;;;30.91;29.54
60019;BME280;45870;42.528;26.740;2022-08-11T06:04:21;99638.78;;;29.07;32.27
60019;BME280;45870;42.528;26.740;2022-08-11T06:09:26;99621.41;;;29.92;31.00
60019;BME280;45870;42.528;26.740;2022-08-11T06:11:56;99633.72;;;27.98;34.80
60019;BME280;45870;42.528;26.740;2022-08-11T06:14:23;99611.63;;;29.47;32.74
60019;BME280;45870;42.528;26.740;2022-08-11T06:16:54;99618.25;;;29.58;31.92
60019;BME280;45870;42.528;26.740;2022-08-11T06:19:22;99622.22;;;30.31;30.60
60019;BME280;45870;42.528;26.740;2022-08-11T06:21:55;99628.09;;;30.26;30.97
60019;BME280;45870;42.528;26.740;2022-08-11T06:24:21;99630.84;;;29.71;31.55
60019;BME280;45870;42.528;26.740;2022-08-11T06:26:50;99624.00;;;29.03;32.42
60019;BME280;45870;42.528;26.740;2022-08-11T06:29:17;99625.97;;;28.59;33.20
60019;BME280;45870;42.528;26.740;2022-08-11T06:31:53;99615.03;;;30.68;29.84
60019;BME280;45870;42.528;26.740;2022-08-11T06:34:31;99478.63;;;28.99;30.41
60019;BME280;45870;42.528;26.740;2022-08-11T06:37:29;99623.06;;;30.50;30.74
60019;BME280;45870;42.528;26.740;2022-08-11T06:40:10;99624.78;;;29.03;32.05
60019;BME280;45870;42.528;26.740;2022-08-11T06:45:27;99615.13;;;29.79;30.64
60019;BME280;45870;42.528;26.740;2022-08-11T06:47:55;99621.56;;;32.00;27.86
60019;BME280;45870;42.528;26.740;2022-08-11T06:50:25;99622.94;;;31.83;27.79
60019;BME280;45870;42.528;26.740;2022-08-11T06:53:10;99588.63;;;30.62;28.54
60019;BME280;45870;42.528;26.740;2022-08-11T06:55:41;99626.69;;;32.24;27.62
60019;BME280;45870;42.528;26.740;2022-08-11T06:58:30;99620.59;;;31.36;27.91
60019;BME280;45870;42.528;26.740;2022-08-11T07:04:03;99597.63;;;30.75;29.50
60019;BME280;45870;42.528;26.740;2022-08-11T07:06:49;99624.97;;;29.42;30.93
60019;BME280;45870;42.528;26.740;2022-08-11T07:19:39;99631.00;;;30.94;28.57
60019;BME280;45870;42.528;26.740;2022-08-11T07:22:29;99626.91;;;32.08;26.61
60019;BME280;45870;42.528;26.740;2022-08-11T07:25:35;99630.94;;;32.48;26.72
60019;BME280;45870;42.528;26.740;2022-08-11T07:28:27;99633.94;;;31.73;26.86
60019;BME280;45870;42.528;26.740;2022-08-11T07:31:24;99634.88;;;32.40;26.31
60019;BME280;45870;42.528;26.740;2022-08-11T07:33:58;99638.78;;;31.76;27.86
60019;BME280;45870;42.528;26.740;2022-08-11T07:36:29;99631.53;;;31.71;28.25
60019;BME280;45870;42.528;26.740;2022-08-11T07:38:56;99632.56;;;30.91;28.96
60019;BME280;45870;42.528;26.740;2022-08-11T07:41:24;99636.53;;;30.29;28.83
60019;BME280;45870;42.528;26.740;2022-08-11T07:43:56;99635.81;;;31.16;28.42
60019;BME280;45870;42.528;26.740;2022-08-11T07:46:41;99635.44;;;31.17;28.14
60019;BME280;45870;42.528;26.740;2022-08-11T07:49:27;99630.03;;;31.28;28.27
60019;BME280;45870;42.528;26.740;2022-08-11T07:52:12;99601.66;;;31.23;27.86
60019;BME280;45870;42.528;26.740;2022-08-11T07:55:00;99624.09;;;31.30;27.79
60019;BME280;45870;42.528;26.740;2022-08-11T07:57:27;99627.72;;;32.42;26.57
60019;BME280;45870;42.528;26.740;2022-08-11T08:00:14;99611.66;;;31.50;27.92
60019;BME280;45870;42.528;26.740;2022-08-11T08:02:59;99625.78;;;32.16;27.53
60019;BME280;45870;42.528;26.740;2022-08-11T08:05:48;99609.66;;;31.01;28.78
60019;BME280;45870;42.528;26.740;2022-08-11T08:08:34;99614.56;;;31.08;28.21
60019;BME280;45870;42.528;26.740;2022-08-11T08:11:20;99609.97;;;31.98;27.08
60019;BME280;45870;42.528;26.740;2022-08-11T08:14:07;99597.72;;;31.01;28.64
60019;BME280;45870;42.528;26.740;2022-08-11T08:16:53;99604.16;;;31.54;27.65
60019;BME280;45870;42.528;26.740;2022-08-11T08:19:42;99599.88;;;31.60;27.97
60019;BME280;45870;42.528;26.740;2022-08-11T08:22:10;99590.16;;;31.24;28.29
60019;BME280;45870;42.528;26.740;2022-08-11T08:24:38;99600.50;;;32.36;26.86
60019;BME280;45870;42.528;26.740;2022-08-11T08:27:07;99595.97;;;31.15;28.46
60019;BME280;45870;42.528;26.740;2022-08-11T08:29:37;99596.28;;;31.89;27.37
60019;BME280;45870;42.528;26.740;2022-08-11T08:32:22;99589.41;;;30.40;29.33
60019;BME280;45870;42.528;26.740;2022-08-11T08:34:53;99595.50;;;31.59;27.92
60019;BME280;45870;42.528;26.740;2022-08-11T08:37:20;99606.88;;;32.70;26.30
60019;BME280;45870;42.528;26.740;2022-08-11T08:39:48;99598.59;;;32.80;26.25
60019;BME280;45870;42.528;26.740;2022-08-11T08:42:22;99613.72;;;32.09;26.91
60019;BME280;45870;42.528;26.740;2022-08-11T08:45:04;99605.41;;;32.46;26.42
60019;BME280;45870;42.528;26.740;2022-08-11T08:47:35;99593.72;;;34.48;23.97
60019;BME280;45870;42.528;26.740;2022-08-11T08:50:14;99600.00;;;32.30;26.89
60019;BME280;45870;42.528;26.740;2022-08-11T08:52:57;99592.63;;;33.84;24.99
60019;BME280;45870;42.528;26.740;2022-08-11T08:55:26;99603.34;;;32.76;25.52
60019;BME280;45870;42.528;26.740;2022-08-11T08:57:53;99604.44;;;32.01;27.08
60019;BME280;45870;42.528;26.740;2022-08-11T09:00:21;99589.13;;;32.55;26.95
60019;BME280;45870;42.528;26.740;2022-08-11T09:02:47;99599.66;;;31.72;27.41
60019;BME280;45870;42.528;26.740;2022-08-11T09:05:16;99584.66;;;32.84;25.77
60019;BME280;45870;42.528;26.740;2022-08-11T09:07:43;99566.38;;;32.93;24.96
60019;BME280;45870;42.528;26.740;2022-08-11T09:10:13;99591.56;;;32.97;25.61
60019;BME280;45870;42.528;26.740;2022-08-11T09:12:42;99484.75;;;32.77;24.74
60019;BME280;45870;42.528;26.740;2022-08-11T09:15:10;99586.28;;;33.36;24.24
60019;BME280;45870;42.528;26.740;2022-08-11T09:17:40;99580.56;;;32.74;25.34
60019;BME280;45870;42.528;26.740;2022-08-11T09:20:09;99582.28;;;33.33;24.50
60019;BME280;45870;42.528;26.740;2022-08-11T09:22:39;99576.44;;;34.28;22.90
60019;BME280;45870;42.528;26.740;2022-08-11T09:25:30;99584.31;;;33.98;23.80
60019;BME280;45870;42.528;26.740;2022-08-11T09:28:16;99581.53;;;33.40;24.61
60019;BME280;45870;42.528;26.740;2022-08-11T09:30:44;99565.09;;;34.00;23.78
60019;BME280;45870;42.528;26.740;2022-08-11T09:33:14;99566.34;;;34.09;23.47
60019;BME280;45870;42.528;26.740;2022-08-11T09:35:41;99558.44;;;34.36;23.54
60019;BME280;45870;42.528;26.740;2022-08-11T09:38:11;99567.63;;;34.26;23.15
60019;BME280;45870;42.528;26.740;2022-08-11T09:40:56;99544.09;;;34.73;23.26
60019;BME280;45870;42.528;26.740;2022-08-11T09:43:25;99561.94;;;34.05;24.28
60019;BME280;45870;42.528;26.740;2022-08-11T09:46:10;99565.25;;;34.39;22.75
60019;BME280;45870;42.528;26.740;2022-08-11T09:48:41;99552.25;;;33.85;23.19
60019;BME280;45870;42.528;26.740;2022-08-11T09:51:08;99542.91;;;34.67;22.54
60019;BME280;45870;42.528;26.740;2022-08-11T09:53:37;99559.25;;;34.30;23.59
60019;BME280;45870;42.528;26.740;2022-08-11T09:56:14;99556.53;;;34.76;22.06
60019;BME280;45870;42.528;26.740;2022-08-11T09:59:00;99551.00;;;33.82;23.85
60019;BME280;45870;42.528;26.740;2022-08-11T10:01:30;99540.91;;;35.38;21.79
60019;BME280;45870;42.528;26.740;2022-08-11T10:04:03;99558.13;;;34.66;22.58
60019;BME280;45870;42.528;26.740;2022-08-11T10:06:31;99551.53;;;36.00;21.61
60019;BME280;45870;42.528;26.740;2022-08-11T10:09:19;99552.19;;;36.36;20.74
60019;BME280;45870;42.528;26.740;2022-08-11T10:11:46;99557.34;;;34.76;22.13
60019;BME280;45870;42.528;26.740;2022-08-11T10:14:16;99540.53;;;35.01;21.87
60019;BME280;45870;42.528;26.740;2022-08-11T10:17:06;99487.59;;;34.43;21.92
60019;BME280;45870;42.528;26.740;2022-08-11T10:19:34;99558.69;;;33.99;22.97
60019;BME280;45870;42.528;26.740;2022-08-11T10:22:05;99547.41;;;33.85;23.25
60019;BME280;45870;42.528;26.740;2022-08-11T10:24:55;99547.22;;;33.50;24.58
60019;BME280;45870;42.528;26.740;2022-08-11T10:27:42;99556.69;;;33.28;24.06
60019;BME280;45870;42.528;26.740;2022-08-11T10:30:09;99552.75;;;33.39;23.97
60019;BME280;45870;42.528;26.740;2022-08-11T10:32:56;99549.56;;;34.17;23.15
60019;BME280;45870;42.528;26.740;2022-08-11T10:35:48;99542.09;;;34.88;21.92
60019;BME280;45870;42.528;26.740;2022-08-11T10:38:15;99554.00;;;32.54;25.08
60019;BME280;45870;42.528;26.740;2022-08-11T10:40:45;99551.78;;;32.70;25.00
60019;BME280;45870;42.528;26.740;2022-08-11T10:43:31;99542.56;;;33.75;23.55
60019;BME280;45870;42.528;26.740;2022-08-11T10:45:57;99540.38;;;33.44;23.54
60019;BME280;45870;42.528;26.740;2022-08-11T10:48:42;99525.88;;;33.24;23.86
60019;BME280;45870;42.528;26.740;2022-08-11T10:51:08;99542.81;;;34.32;22.45
60019;BME280;45870;42.528;26.740;2022-08-11T10:53:44;99533.69;;;34.81;22.81
60019;BME280;45870;42.528;26.740;2022-08-11T10:56:34;99524.25;;;33.85;23.52
60019;BME280;45870;42.528;26.740;2022-08-11T10:59:20;99535.53;;;34.09;23.40
60019;BME280;45870;42.528;26.740;2022-08-11T11:01:48;99533.25;;;34.50;22.72
60019;BME280;45870;42.528;26.740;2022-08-11T11:04:16;99539.09;;;33.27;23.75
60019;BME280;45870;42.528;26.740;2022-08-11T11:07:02;99538.84;;;34.43;22.41
60019;BME280;45870;42.528;26.740;2022-08-11T11:09:36;99531.91;;;33.98;23.30
60019;BME280;45870;42.528;26.740;2022-08-11T11:12:15;99531.09;;;33.98;22.96
60019;BME280;45870;42.528;26.740;2022-08-11T11:15:02;99525.88;;;34.00;23.00
60019;BME280;45870;42.528;26.740;2022-08-11T11:17:55;99515.19;;;34.20;22.27
60019;BME280;45870;42.528;26.740;2022-08-11T11:20:25;99518.81;;;34.52;22.30
60019;BME280;45870;42.528;26.740;2022-08-11T11:22:55;99525.19;;;34.28;22.65
60019;BME280;45870;42.528;26.740;2022-08-11T11:25:37;99516.00;;;34.48;21.67
60019;BME280;45870;42.528;26.740;2022-08-11T11:28:18;;;;35.14;
60019;BME280;45870;42.528;26.740;2022-08-11T11:36:18;99513.84;;;33.89;22.60
60019;BME280;45870;42.528;26.740;2022-08-11T11:38:48;99527.59;;;32.88;24.13
60019;BME280;45870;42.528;26.740;2022-08-11T11:41:14;99527.22;;;34.41;22.21
60019;BME280;45870;42.528;26.740;2022-08-11T11:43:52;99510.84;;;35.07;21.21
60019;BME280;45870;42.528;26.740;2022-08-11T11:46:19;99518.38;;;35.70;21.26
60019;BME280;45870;42.528;26.740;2022-08-11T11:48:45;99383.84;;;33.97;21.33
60019;BME280;45870;42.528;26.740;2022-08-11T11:51:11;99511.09;;;34.06;22.55
60019;BME280;45870;42.528;26.740;2022-08-11T11:53:41;99503.19;;;34.30;22.12
60019;BME280;45870;42.528;26.740;2022-08-11T11:56:10;99507.22;;;34.60;21.66
60019;BME280;45870;42.528;26.740;2022-08-11T11:58:39;99505.13;;;36.47;18.93
60019;BME280;45870;42.528;26.740;2022-08-11T12:01:37;99510.41;;;34.55;21.64
60019;BME280;45870;42.528;26.740;2022-08-11T12:04:04;99507.94;;;35.74;20.60
60019;BME280;45870;42.528;26.740;2022-08-11T12:06:31;99491.19;;;36.84;19.40
60019;BME280;45870;42.528;26.740;2022-08-11T12:09:00;99490.78;;;34.34;22.98
60019;BME280;45870;42.528;26.740;2022-08-11T12:11:27;99485.16;;;34.24;22.90
60019;BME280;45870;42.528;26.740;2022-08-11T12:14:15;99475.91;;;33.23;23.82
60019;BME280;45870;42.528;26.740;2022-08-11T12:16:44;99503.63;;;35.24;21.36
60019;BME280;45870;42.528;26.740;2022-08-11T12:19:12;99501.22;;;35.26;20.86
60019;BME280;45870;42.528;26.740;2022-08-11T12:21:40;99504.75;;;35.51;20.46
60019;BME280;45870;42.528;26.740;2022-08-11T12:24:26;99502.78;;;35.48;21.37
60019;BME280;45870;42.528;26.740;2022-08-11T12:27:11;99499.19;;;35.40;20.99
60019;BME280;45870;42.528;26.740;2022-08-11T12:29:50;99461.91;;;36.78;19.17
60019;BME280;45870;42.528;26.740;2022-08-11T12:32:18;99496.41;;;34.52;22.79
60019;BME280;45870;42.528;26.740;2022-08-11T12:34:44;99495.09;;;35.73;20.83
60019;BME280;45870;42.528;26.740;2022-08-11T12:37:10;99489.44;;;37.05;20.18
60019;BME280;45870;42.528;26.740;2022-08-11T12:39:45;99494.44;;;34.84;21.96
60019;BME280;45870;42.528;26.740;2022-08-11T12:42:33;99492.63;;;33.81;23.60
60019;BME280;45870;42.528;26.740;2022-08-11T12:45:24;99491.25;;;34.79;22.27
60019;BME280;45870;42.528;26.740;2022-08-11T12:48:07;99482.41;;;34.70;22.54
60019;BME280;45870;42.528;26.740;2022-08-11T12:51:01;99473.97;;;34.55;22.41
60019;BME280;45870;42.528;26.740;2022-08-11T12:53:57;99474.41;;;35.18;22.00
60019;BME280;45870;42.528;26.740;2022-08-11T12:56:27;99491.16;;;34.19;23.55
60019;BME280;45870;42.528;26.740;2022-08-11T12:59:16;99459.56;;;33.25;24.31
60019;BME280;45870;42.528;26.740;2022-08-11T13:02:01;99484.81;;;34.57;22.32
60019;BME280;45870;42.528;26.740;2022-08-11T13:04:46;99482.69;;;34.08;22.99
60019;BME280;45870;42.528;26.740;2022-08-11T13:07:20;99434.72;;;34.55;22.38
60019;BME280;45870;42.528;26.740;2022-08-11T13:09:46;99488.44;;;33.53;23.80
60019;BME280;45870;42.528;26.740;2022-08-11T13:12:13;99462.75;;;34.55;22.44
60019;BME280;45870;42.528;26.740;2022-08-11T13:14:58;99485.59;;;34.40;23.10
60019;BME280;45870;42.528;26.740;2022-08-11T13:17:25;99482.72;;;34.11;23.48
60019;BME280;45870;42.528;26.740;2022-08-11T13:19:56;99477.56;;;34.35;22.35
60019;BME280;45870;42.528;26.740;2022-08-11T13:22:23;99482.03;;;34.68;22.48
60019;BME280;45870;42.528;26.740;2022-08-11T13:24:50;99488.44;;;34.93;22.19
60019;BME280;45870;42.528;26.740;2022-08-11T13:27:20;99481.19;;;34.49;22.82
60019;BME280;45870;42.528;26.740;2022-08-11T13:29:48;99471.50;;;34.11;22.79
60019;BME280;45870;42.528;26.740;2022-08-11T13:32:15;99474.56;;;33.68;23.77
60019;BME280;45870;42.528;26.740;2022-08-11T13:34:41;99485.97;;;33.34;24.34
60019;BME280;45870;42.528;26.740;2022-08-11T13:37:09;99491.84;;;33.91;23.65
60019;BME280;45870;42.528;26.740;2022-08-11T13:39:39;99461.22;;;33.43;24.14
60019;BME280;45870;42.528;26.740;2022-08-11T13:42:14;99486.28;;;34.05;23.82
60019;BME280;45870;42.528;26.740;2022-08-11T13:44:44;99390.88;;;33.38;23.31
60019;BME280;45870;42.528;26.740;2022-08-11T13:47:12;99480.00;;;34.47;22.27
60019;BME280;45870;42.528;26.740;2022-08-11T13:49:40;99483.22;;;35.13;21.61
60019;BME280;45870;42.528;26.740;2022-08-11T13:52:10;99493.19;;;34.29;23.10
60019;BME280;45870;42.528;26.740;2022-08-11T13:54:37;99495.75;;;36.02;20.77
60019;BME280;45870;42.528;26.740;2022-08-11T13:57:06;99488.84;;;34.70;22.00
60019;BME280;45870;42.528;26.740;2022-08-11T13:59:33;99493.94;;;35.67;21.70
60019;BME280;45870;42.528;26.740;2022-08-11T14:02:06;99491.25;;;34.82;22.85
60019;BME280;45870;42.528;26.740;2022-08-11T14:04:39;99454.34;;;34.52;22.33
60019;BME280;45870;42.528;26.740;2022-08-11T14:07:08;99497.09;;;34.06;23.56
60019;BME280;45870;42.528;26.740;2022-08-11T14:09:40;99488.41;;;34.43;22.93
60019;BME280;45870;42.528;26.740;2022-08-11T14:12:20;99490.06;;;34.87;21.92
60019;BME280;45870;42.528;26.740;2022-08-11T14:15:15;99482.75;;;34.19;23.22
60019;BME280;45870;42.528;26.740;2022-08-11T14:17:47;99473.94;;;34.13;23.01
60019;BME280;45870;42.528;26.740;2022-08-11T14:20:16;99490.00;;;34.51;22.90
60019;BME280;45870;42.528;26.740;2022-08-11T14:22:43;99471.56;;;34.19;22.23
60019;BME280;45870;42.528;26.740;2022-08-11T14:25:13;99482.78;;;34.29;22.78
60019;BME280;45870;42.528;26.740;2022-08-11T14:27:43;99474.16;;;33.66;23.10
60019;BME280;45870;42.528;26.740;2022-08-11T14:30:09;99479.59;;;34.94;22.29
60019;BME280;45870;42.528;26.740;2022-08-11T14:32:56;99477.47;;;35.55;21.49
60019;BME280;45870;42.528;26.740;2022-08-11T14:35:24;99469.53;;;37.26;18.94
60019;BME280;45870;42.528;26.740;2022-08-11T14:37:50;99475.88;;;36.89;19.88
60019;BME280;45870;42.528;26.740;2022-08-11T14:40:17;99484.00;;;35.06;22.31
60019;BME280;45870;42.528;26.740;2022-08-11T14:43:01;99473.94;;;34.20;22.83
60019;BME280;45870;42.528;26.740;2022-08-11T14:45:45;99484.97;;;37.11;20.04
60019;BME280;45870;42.528;26.740;2022-08-11T14:48:30;99429.56;;;37.00;19.98
60019;BME280;45870;42.528;26.740;2022-08-11T14:50:57;99474.75;;;37.24;19.24
60019;BME280;45870;42.528;26.740;2022-08-11T14:53:23;99480.28;;;35.58;20.63
60019;BME280;45870;42.528;26.740;2022-08-11T14:55:50;99469.88;;;34.03;22.84
60019;BME280;45870;42.528;26.740;2022-08-11T14:58:35;99476.41;;;34.89;22.34
60019;BME280;45870;42.528;26.740;2022-08-11T15:01:02;99484.38;;;35.33;21.50
60019;BME280;45870;42.528;26.740;2022-08-11T15:03:48;99478.78;;;34.37;22.21
60019;BME280;45870;42.528;26.740;2022-08-11T15:06:17;99479.53;;;34.17;22.75
60019;BME280;45870;42.528;26.740;2022-08-11T15:08:43;99468.03;;;36.04;20.45
60019;BME280;45870;42.528;26.740;2022-08-11T15:11:28;99471.97;;;34.35;22.56
60019;BME280;45870;42.528;26.740;2022-08-11T15:14:13;99469.53;;;35.39;21.38
60019;BME280;45870;42.528;26.740;2022-08-11T15:16:59;99415.09;;;34.27;21.87
60019;BME280;45870;42.528;26.740;2022-08-11T15:19:33;99457.50;;;35.39;20.83
60019;BME280;45870;42.528;26.740;2022-08-11T15:22:01;99467.59;;;35.08;22.29
60019;BME280;45870;42.528;26.740;2022-08-11T15:24:45;99446.59;;;33.82;23.29
60019;BME280;45870;42.528;26.740;2022-08-11T15:27:18;99462.00;;;34.90;21.67
60019;BME280;45870;42.528;26.740;2022-08-11T15:30:05;99457.13;;;34.24;23.00
60019;BME280;45870;42.528;26.740;2022-08-11T15:32:50;99472.25;;;33.87;23.49
60019;BME280;45870;42.528;26.740;2022-08-11T15:35:37;99462.38;;;34.57;22.71
60019;BME280;45870;42.528;26.740;2022-08-11T15:38:22;99460.38;;;35.18;22.34
60019;BME280;45870;42.528;26.740;2022-08-11T15:40:50;99460.59;;;33.78;23.64
60019;BME280;45870;42.528;26.740;2022-08-11T15:43:44;99466.91;;;32.92;24.50
60019;BME280;45870;42.528;26.740;2022-08-11T15:46:44;99461.84;;;33.84;23.40
60019;BME280;45870;42.528;26.740;2022-08-11T15:49:13;99338.22;;;32.78;23.81
60019;BME280;45870;42.528;26.740;2022-08-11T15:51:47;99463.19;;;34.54;22.68
60019;BME280;45870;42.528;26.740;2022-08-11T15:54:17;99442.84;;;33.39;23.51
60019;BME280;45870;42.528;26.740;2022-08-11T15:56:47;99433.31;;;33.61;23.75
60019;BME280;45870;42.528;26.740;2022-08-11T15:59:16;99464.03;;;33.43;24.23
60019;BME280;45870;42.528;26.740;2022-08-11T16:02:03;99468.13;;;33.60;23.90
60019;BME280;45870;42.528;26.740;2022-08-11T16:04:48;99467.72;;;33.61;24.29
60019;BME280;45870;42.528;26.740;2022-08-11T16:07:16;99467.13;;;33.21;24.92
60019;BME280;45870;42.528;26.740;2022-08-11T16:09:51;99471.78;;;32.14;26.18
60019;BME280;45870;42.528;26.740;2022-08-11T16:12:22;99473.03;;;32.21;26.18
60019;BME280;45870;42.528;26.740;2022-08-11T16:14:53;99470.56;;;32.12;26.34
60019;BME280;45870;42.528;26.740;2022-08-11T16:17:43;99447.97;;;31.57;27.34
60019;BME280;45870;42.528;26.740;2022-08-11T16:20:11;99480.59;;;31.83;26.79
60019;BME280;45870;42.528;26.740;2022-08-11T16:22:38;99472.56;;;31.82;27.42
60019;BME280;45870;42.528;26.740;2022-08-11T16:25:15;99490.31;;;31.37;27.27
60019;BME280;45870;42.528;26.740;2022-08-11T16:27:45;99468.38;;;31.35;27.71
60019;BME280;45870;42.528;26.740;2022-08-11T16:30:12;99480.22;;;31.55;27.34
60019;BME280;45870;42.528;26.740;2022-08-11T16:32:43;99491.91;;;31.64;27.20
60019;BME280;45870;42.528;26.740;2022-08-11T16:35:14;99481.88;;;30.81;28.60
60019;BME280;45870;42.528;26.740;2022-08-11T16:37:58;99492.63;;;30.79;28.21
60019;BME280;45870;42.528;26.740;2022-08-11T16:40:45;99497.06;;;31.06;28.30
60019;BME280;45870;42.528;26.740;2022-08-11T16:43:16;99486.47;;;31.18;27.70
60019;BME280;45870;42.528;26.740;2022-08-11T16:46:03;99495.34;;;31.54;27.50
60019;BME280;45870;42.528;26.740;2022-08-11T16:48:49;99496.63;;;30.81;28.57
60019;BME280;45870;42.528;26.740;2022-08-11T16:51:18;99506.38;;;30.94;28.20
60019;BME280;45870;42.528;26.740;2022-08-11T16:53:46;99495.00;;;31.03;28.09
60019;BME280;45870;42.528;26.740;2022-08-11T16:56:15;99498.84;;;30.95;27.86
60019;BME280;45870;42.528;26.740;2022-08-11T16:58:46;99503.09;;;31.38;27.55
60019;BME280;45870;42.528;26.740;2022-08-11T17:01:34;99466.66;;;30.75;28.59
60019;BME280;45870;42.528;26.740;2022-08-11T17:04:07;99494.09;;;30.72;28.94
60019;BME280;45870;42.528;26.740;2022-08-11T17:06:52;99508.31;;;30.22;29.82
60019;BME280;45870;42.528;26.740;2022-08-11T17:09:37;99515.25;;;30.54;28.79
60019;BME280;45870;42.528;26.740;2022-08-11T17:12:25;99521.78;;;30.62;28.98
60019;BME280;45870;42.528;26.740;2022-08-11T17:15:16;99513.16;;;30.70;29.14
60019;BME280;45870;42.528;26.740;2022-08-11T17:18:05;99498.94;;;30.53;28.73
60019;BME280;45870;42.528;26.740;2022-08-11T17:20:33;99524.00;;;30.76;29.03
60019;BME280;45870;42.528;26.740;2022-08-11T17:23:00;99507.75;;;31.04;28.23
60019;BME280;45870;42.528;26.740;2022-08-11T17:25:56;99494.13;;;30.08;29.74
60019;BME280;45870;42.528;26.740;2022-08-11T17:28:23;99532.06;;;30.39;29.41